Airfield :
LOGIN :

Register | Disclaimer

   EN    FR    IT 

 










Legend :    VFR   Marginal VFR   IFR   Intensive IFR   Very Intensive IFR
Visi :
Ceiling :
>= 8 km
>= 3000ft
5 to 8 km
1000 to 3000 ft
1500m to 5 km
500 to 1000 ft
800 to 1500m
200 to 500 ft
< 800m
< 200 ft
Symbols :   Thunderstorms  Fog  Heavy snow  Heavy precipitations  Wind > 20 kt
SIGMETs :     Misc.  Thunderstorms  Icing  Turbulence  Mountain Waves  Volcanic Ashes






- Airport Elevation : 100 ft


EBDT - Schaffen

CURRENT METAR :
  • 170751Z AUTO VRB02KT 1300 BR FEW220/// M00/M01 Q1012 AMB

EXPIRED METARs :
  • 170725Z AUTO VRB01KT 4400 BR FEW220/// M00/M00 Q1012 GRN
  • 170655Z AUTO VRB02KT 3400 BR FEW210/// 00/M00 Q1012 YLO
  • 170625Z AUTO 14004KT 3500 BR FEW210/// M00/M00 Q1012 YLO
  • 170555Z AUTO 14003KT 3300 BR SCT210/// 00/00 Q1011 YLO
  • 170540Z AUTO VRB02KT 3600 BR SCT210/// 01/00 Q1011 YLO
  • 170513Z AUTO VRB02KT 4600 BR BKN210/// 01/00 Q1011 GRN

Expired Forecast.



MET'MAP, your aeronautical weather chart ! - Copyright ORBIFLY December 2007 - Disclaimer

ORBIFLY MET'MAP TEAM :

Programming & Development : Alexandra Zaïnal
Concept & Development : Baudouin d'Aumeries
Co-Development & Prog : Marc-Olivier Méhu
Technical & hardware support : Manuel Goepfert

Contact : metmap@orbifly.com




SOURCES & CREDITS :

   NOAA